Muskegon, MI

9:20 AM EST on February 23, 2017 (GMT -0500)
North Muskegon | | Change Station

Elev 630 ft 43.25 °N, 86.27 °W | Updated 22 seconds ago

Overcast
Overcast
40.6 °F
Feels Like 41 °F
N
1.0
Wind Variable Wind from WSW
Gusts 2.0 mph

Today
High -- | Low -- °F
--% Chance of Precip.
Yesterday
High -- | Low -- °F
Precip. -- in
Pressure 29.75 in
Visibility 2.5 miles
Clouds Mostly Cloudy 600 ft
Overcast 1100 ft
Windchill 41 °F
Dew Point 40 °F
Humidity 97%
Rainfall 0.00 in
Snow Depth Not available.
7:30 AM 6:26 PM
Waning Crescent, 10% visible
METAR KMKG 231355Z 29004KT 2 1/2SM BR BKN006 OVC011 05/04 A2975 RMK AO2 SFC VIS 4 SLP075 T00500044
Pressure 29.75 in
Visibility 2.5 miles
Clouds Mostly Cloudy 600 ft
Overcast 1100 ft
Windchill 41 °F
Dew Point 40 °F
Humidity 97%
Rainfall 0.00 in
Snow Depth Not available.
7:30 AM 6:26 PM
Waning Crescent, 10% visible
METAR KMKG 231355Z 29004KT 2 1/2SM BR BKN006 OVC011 05/04 A2975 RMK AO2 SFC VIS 4 SLP075 T00500044

Get Your Daily Forecast Email!

Thanks for signing up!

Be on the lookout for a verification email in your inbox.

You'll start receiving the daily forecast at 8 AM.

×

10-Day Weather Forecast

Almanac

Astronomy

Feb. 23, 2017 Rise Set
Actual Time
Civil Twilight
Nautical Twilight
Astronomical Twilight
Moon
Length of Visible Light
Length of Day
Tomorrow will be .
, % of the Moon is Illuminated

Today's Extremes

State Highs State Lows

Community

WunderPhotos

Upload Photos

1,962,540 photos uploaded!

WunderBlog® & News

Nearby

Air Quality

  Air Quality AQ Index Pollutant
Not available.

Snow Depth

Station Depth Elevation

Earthquake Activity

City Distance Mag. Time & Date
Minimum magnitude displayed is 2.5.

Coastal Water Temperatures

Place Temperature

Stations

Nearby Weather Stations

Station Location Temp. Windchill Dew Point Humidity Wind Precip. Elev Updated Type
                   

Watches & Warnings

There are currently no watches in effect.